createdAt,value
2023-05-11T00:00:43.202Z,0.00
2023-05-11T00:01:43.219Z,0.00
2023-05-11T00:02:43.268Z,0.00
2023-05-11T00:03:43.237Z,0.00
2023-05-11T00:04:43.489Z,0.00
2023-05-11T00:05:43.182Z,0.00
2023-05-11T00:06:43.156Z,0.00
2023-05-11T00:07:43.136Z,0.00
2023-05-11T00:08:43.123Z,0.00
2023-05-11T00:09:43.113Z,0.00
2023-05-11T00:10:43.114Z,0.00
2023-05-11T00:11:43.105Z,0.00
2023-05-11T00:12:43.090Z,0.00
2023-05-11T00:13:43.064Z,0.00
2023-05-11T00:14:43.046Z,0.00
2023-05-11T00:15:43.079Z,0.00
2023-05-11T00:16:43.059Z,0.00
2023-05-11T00:17:43.072Z,0.00
2023-05-11T00:18:43.019Z,0.00
2023-05-11T00:19:42.994Z,0.00
2023-05-11T00:20:42.974Z,0.00
2023-05-11T00:21:42.991Z,0.00
2023-05-11T00:22:44.866Z,0.00
2023-05-11T00:23:42.973Z,0.00
2023-05-11T00:24:42.932Z,0.00
2023-05-11T00:25:42.977Z,0.00
2023-05-11T00:26:42.928Z,0.00
2023-05-11T00:27:42.929Z,0.00
2023-05-11T00:28:42.911Z,0.00
2023-05-11T00:29:42.878Z,0.00
2023-05-11T00:30:42.867Z,0.00
2023-05-11T00:31:42.955Z,0.00
2023-05-11T00:32:42.888Z,0.00
2023-05-11T00:33:42.831Z,0.00
2023-05-11T00:34:42.830Z,0.00
2023-05-11T00:35:42.817Z,0.00
2023-05-11T00:36:42.812Z,0.00
2023-05-11T00:37:42.828Z,0.00
2023-05-11T00:38:42.777Z,0.00
2023-05-11T00:39:42.773Z,0.00
2023-05-11T00:40:42.759Z,0.00
2023-05-11T00:41:42.759Z,0.00
2023-05-11T00:42:42.726Z,0.00
2023-05-11T00:43:42.730Z,0.00
2023-05-11T00:44:42.714Z,0.00
2023-05-11T00:45:42.759Z,0.00
2023-05-11T00:46:42.816Z,0.00
2023-05-11T00:47:42.702Z,0.00
2023-05-11T00:48:42.660Z,0.00
2023-05-11T00:49:42.653Z,0.00
2023-05-11T00:50:42.642Z,0.00
2023-05-11T00:51:42.649Z,0.00
2023-05-11T00:52:42.613Z,0.00
2023-05-11T00:53:42.614Z,0.00
2023-05-11T00:54:42.586Z,0.00
2023-05-11T00:55:42.572Z,0.00
2023-05-11T00:56:42.566Z,0.00
2023-05-11T00:57:42.585Z,0.00
2023-05-11T00:58:42.548Z,0.00
2023-05-11T00:59:42.522Z,0.00
2023-05-11T01:00:42.549Z,0.00
2023-05-11T01:01:42.547Z,0.00
2023-05-11T01:02:42.649Z,0.00
2023-05-11T01:03:42.495Z,0.00
2023-05-11T01:04:42.477Z,0.00
2023-05-11T01:05:42.459Z,0.00
2023-05-11T01:06:42.505Z,0.00
2023-05-11T01:07:42.466Z,0.00
2023-05-11T01:08:42.456Z,0.00
2023-05-11T01:09:42.423Z,0.00
2023-05-11T01:10:42.408Z,0.00
2023-05-11T01:11:42.450Z,0.00
2023-05-11T01:12:42.392Z,0.00
2023-05-11T01:13:42.526Z,0.00
2023-05-11T01:14:42.386Z,0.00
2023-05-11T01:15:42.363Z,0.00
2023-05-11T01:16:42.382Z,0.00
2023-05-11T01:17:42.370Z,0.00
2023-05-11T01:18:42.413Z,0.00
2023-05-11T01:19:42.327Z,0.00
2023-05-11T01:20:42.305Z,0.00
2023-05-11T01:21:42.291Z,0.00
2023-05-11T01:22:42.303Z,0.00
2023-05-11T01:23:42.281Z,0.00
2023-05-11T01:24:42.254Z,0.00
2023-05-11T01:25:42.239Z,0.00
2023-05-11T01:26:42.235Z,0.00
2023-05-11T01:27:42.218Z,0.00
2023-05-11T01:28:42.207Z,0.00
2023-05-11T01:29:42.234Z,0.00
2023-05-11T01:30:42.199Z,0.00
2023-05-11T01:31:42.267Z,0.00
2023-05-11T01:32:42.336Z,0.00
2023-05-11T01:33:42.186Z,0.00
2023-05-11T01:34:42.138Z,0.00
2023-05-11T01:35:42.123Z,0.00
2023-05-11T01:36:42.119Z,0.00
2023-05-11T01:37:42.122Z,0.00
2023-05-11T01:38:42.108Z,0.00
2023-05-11T01:39:42.085Z,0.00
2023-05-11T01:40:42.072Z,0.00
2023-05-11T01:41:42.071Z,0.00
2023-05-11T01:42:42.071Z,0.00
2023-05-11T01:43:42.039Z,0.00
2023-05-11T01:44:42.035Z,0.00
2023-05-11T01:45:42.105Z,0.00
2023-05-11T01:46:42.003Z,0.00
2023-05-11T01:47:42.048Z,0.00
2023-05-11T01:48:42.007Z,0.00
2023-05-11T01:49:41.978Z,0.00
2023-05-11T01:50:41.955Z,0.00
2023-05-11T01:51:41.995Z,0.00
2023-05-11T01:52:41.955Z,0.00
2023-05-11T01:53:41.933Z,0.00
2023-05-11T01:54:41.962Z,0.00
2023-05-11T01:55:41.904Z,0.00
2023-05-11T01:56:41.929Z,0.00
2023-05-11T01:57:41.890Z,0.00
2023-05-11T01:58:41.972Z,0.00
2023-05-11T01:59:41.847Z,0.00
2023-05-11T02:00:41.878Z,0.00
2023-05-11T02:01:41.838Z,0.00
2023-05-11T02:02:41.884Z,0.00
2023-05-11T02:03:41.894Z,0.00
2023-05-11T02:04:41.823Z,0.00
2023-05-11T02:05:41.798Z,0.00
2023-05-11T02:06:41.800Z,0.00
2023-05-11T02:07:41.758Z,0.00
2023-05-11T02:08:41.747Z,0.00
2023-05-11T02:09:41.738Z,0.00
2023-05-11T02:10:41.748Z,0.00
2023-05-11T02:11:41.727Z,0.00
2023-05-11T02:12:41.714Z,0.00
2023-05-11T02:13:41.703Z,0.00
2023-05-11T02:14:41.708Z,0.00
2023-05-11T02:15:41.670Z,0.00
2023-05-11T02:16:41.686Z,0.00
2023-05-11T02:17:41.775Z,0.00
2023-05-11T02:18:41.868Z,0.00
2023-05-11T02:19:41.623Z,0.00
2023-05-11T02:20:41.629Z,0.00
2023-05-11T02:21:41.981Z,0.00
2023-05-11T02:22:44.177Z,0.00
2023-05-11T02:23:41.571Z,0.00
2023-05-11T02:24:41.566Z,0.00
2023-05-11T02:25:41.559Z,0.00
2023-05-11T02:26:41.563Z,0.00
2023-05-11T02:27:41.526Z,0.00
2023-05-11T02:28:41.534Z,0.00
2023-05-11T02:29:41.504Z,0.00
2023-05-11T02:30:41.500Z,0.00
2023-05-11T02:31:41.595Z,0.00
2023-05-11T02:32:41.532Z,0.00
2023-05-11T02:33:41.466Z,0.00
2023-05-11T02:34:41.473Z,0.00
2023-05-11T02:35:41.441Z,0.00
2023-05-11T02:36:41.450Z,0.00
2023-05-11T02:37:41.414Z,0.00
2023-05-11T02:38:41.426Z,0.00
2023-05-11T02:39:41.406Z,0.00
2023-05-11T02:40:41.428Z,0.00
2023-05-11T02:41:41.381Z,0.00
2023-05-11T02:42:41.371Z,0.00
2023-05-11T02:43:41.367Z,0.00
2023-05-11T02:44:41.342Z,0.00
2023-05-11T02:45:41.324Z,0.00
2023-05-11T02:46:41.354Z,0.00
2023-05-11T02:47:41.398Z,0.00
2023-05-11T02:48:41.305Z,0.00
2023-05-11T02:49:41.276Z,0.00
2023-05-11T02:50:41.273Z,0.00
2023-05-11T02:51:41.289Z,0.00
2023-05-11T02:52:41.272Z,0.00
2023-05-11T02:53:41.239Z,0.00
2023-05-11T02:54:41.230Z,0.00
2023-05-11T02:55:41.212Z,0.00
2023-05-11T02:56:41.202Z,0.00
2023-05-11T02:57:41.216Z,0.00
2023-05-11T02:58:41.199Z,0.00
2023-05-11T02:59:41.184Z,0.00
2023-05-11T03:00:41.263Z,0.00
2023-05-11T03:01:41.283Z,0.00
2023-05-11T03:02:41.304Z,0.00
2023-05-11T03:03:41.190Z,0.00
2023-05-11T03:04:41.112Z,0.00
2023-05-11T03:05:41.109Z,0.00
2023-05-11T03:06:41.109Z,0.00
2023-05-11T03:07:41.071Z,0.00
2023-05-11T03:08:41.104Z,0.00
2023-05-11T03:09:41.071Z,0.00
2023-05-11T03:10:41.051Z,0.00
2023-05-11T03:11:41.041Z,0.00
2023-05-11T03:12:41.038Z,0.00
2023-05-11T03:13:41.001Z,0.00
2023-05-11T03:14:41.029Z,0.00
2023-05-11T03:15:40.981Z,0.00
2023-05-11T03:16:41.013Z,0.00
2023-05-11T03:17:41.030Z,0.00
2023-05-11T03:18:40.984Z,0.00
2023-05-11T03:19:40.947Z,0.00
2023-05-11T03:20:40.934Z,0.00
2023-05-11T03:21:40.950Z,0.00
2023-05-11T03:22:40.935Z,0.00
2023-05-11T03:23:40.925Z,0.00
2023-05-11T03:24:40.919Z,0.00
2023-05-11T03:25:40.900Z,0.00
2023-05-11T03:26:40.870Z,0.00
2023-05-11T03:27:40.851Z,0.00
2023-05-11T03:28:40.873Z,0.00
2023-05-11T03:29:40.836Z,0.00
2023-05-11T03:30:40.839Z,0.00
2023-05-11T03:31:40.866Z,0.00
2023-05-11T03:32:40.845Z,0.00
2023-05-11T03:33:40.783Z,0.00
2023-05-11T03:34:40.775Z,0.00
2023-05-11T03:35:40.783Z,0.00
2023-05-11T03:36:40.756Z,0.00
2023-05-11T03:37:40.735Z,0.00
2023-05-11T03:38:40.756Z,0.00
2023-05-11T03:39:40.717Z,0.00
2023-05-11T03:40:40.748Z,0.00
2023-05-11T03:41:40.699Z,0.00
2023-05-11T03:42:40.690Z,0.00
2023-05-11T03:43:40.669Z,0.00
2023-05-11T03:44:40.664Z,0.00
2023-05-11T03:45:40.673Z,0.00
2023-05-11T03:46:40.705Z,0.00
2023-05-11T03:47:40.686Z,0.00
2023-05-11T03:48:40.627Z,0.00
2023-05-11T03:49:40.607Z,0.00
2023-05-11T03:50:40.621Z,0.00
2023-05-11T03:51:40.599Z,5.62
2023-05-11T03:52:40.577Z,5.62
2023-05-11T03:53:40.566Z,5.62
2023-05-11T03:54:40.556Z,5.62
2023-05-11T03:55:40.559Z,5.62
2023-05-11T03:56:40.582Z,5.62
2023-05-11T03:57:40.529Z,5.62
2023-05-11T03:58:40.554Z,5.62
2023-05-11T03:59:41.478Z,5.62
2023-05-11T04:00:40.503Z,5.62
2023-05-11T04:01:40.463Z,5.62
2023-05-11T04:02:40.556Z,5.62
2023-05-11T04:03:40.543Z,5.62
2023-05-11T04:04:40.534Z,5.62
2023-05-11T04:05:40.430Z,5.62
2023-05-11T04:06:40.414Z,5.62
2023-05-11T04:07:40.397Z,5.62
2023-05-11T04:08:40.412Z,5.62
2023-05-11T04:09:40.369Z,5.62
2023-05-11T04:10:40.367Z,5.62
2023-05-11T04:11:40.411Z,5.62
2023-05-11T04:12:40.397Z,5.62
2023-05-11T04:13:40.328Z,5.62
2023-05-11T04:14:40.321Z,5.62
2023-05-11T04:15:40.300Z,5.62
2023-05-11T04:16:40.340Z,5.62
2023-05-11T04:17:40.350Z,11.25
2023-05-11T04:18:40.309Z,11.25
2023-05-11T04:19:40.279Z,11.25
2023-05-11T04:20:40.253Z,11.25
2023-05-11T04:21:40.253Z,11.25
2023-05-11T04:22:40.230Z,11.25
2023-05-11T04:23:40.242Z,11.25
2023-05-11T04:24:40.208Z,16.88
2023-05-11T04:25:40.200Z,16.88
2023-05-11T04:26:40.201Z,16.88
2023-05-11T04:27:40.181Z,16.88
2023-05-11T04:28:40.231Z,16.88
2023-05-11T04:29:40.165Z,16.88
2023-05-11T04:30:40.130Z,11.25
2023-05-11T04:31:40.215Z,11.25
2023-05-11T04:32:40.155Z,11.25
2023-05-11T04:33:40.117Z,11.25
2023-05-11T04:34:40.111Z,11.25
2023-05-11T04:35:40.084Z,11.25
2023-05-11T04:36:40.072Z,11.25
2023-05-11T04:37:40.062Z,11.25
2023-05-11T04:38:40.067Z,11.25
2023-05-11T04:39:40.036Z,11.25
2023-05-11T04:40:40.039Z,11.25
2023-05-11T04:41:40.043Z,16.88
2023-05-11T04:42:40.003Z,16.88
2023-05-11T04:43:39.999Z,16.88
2023-05-11T04:44:40.004Z,22.50
2023-05-11T04:45:39.957Z,22.50
2023-05-11T04:46:40.025Z,22.50
2023-05-11T04:47:40.018Z,22.50
2023-05-11T04:48:39.969Z,22.50
2023-05-11T04:49:39.941Z,22.50
2023-05-11T04:50:39.921Z,22.50
2023-05-11T04:51:39.920Z,16.88
2023-05-11T04:52:39.908Z,16.88
2023-05-11T04:53:39.905Z,22.50
2023-05-11T04:54:39.872Z,22.50
2023-05-11T04:55:39.845Z,28.12
2023-05-11T04:56:39.848Z,28.12
2023-05-11T04:57:39.846Z,28.12
2023-05-11T04:58:39.829Z,28.12
2023-05-11T04:59:39.884Z,28.12
2023-05-11T05:00:39.826Z,28.12
2023-05-11T05:01:39.974Z,28.12
2023-05-11T05:02:39.820Z,28.12
2023-05-11T05:03:39.823Z,28.12
2023-05-11T05:04:39.761Z,22.50
2023-05-11T05:05:39.755Z,22.50
2023-05-11T05:06:39.737Z,16.88
2023-05-11T05:07:39.729Z,16.88
2023-05-11T05:08:39.721Z,16.88
2023-05-11T05:09:39.696Z,16.88
2023-05-11T05:10:39.700Z,11.25
2023-05-11T05:11:39.680Z,11.25
2023-05-11T05:12:39.687Z,11.25
2023-05-11T05:13:39.658Z,11.25
2023-05-11T05:14:39.635Z,11.25
2023-05-11T05:15:39.629Z,16.88
2023-05-11T05:16:39.657Z,16.88
2023-05-11T05:17:39.658Z,16.88
2023-05-11T05:18:39.622Z,22.50
2023-05-11T05:19:39.590Z,22.50
2023-05-11T05:20:39.617Z,28.12
2023-05-11T05:21:39.569Z,28.12
2023-05-11T05:22:39.554Z,28.12
2023-05-11T05:23:39.561Z,28.12
2023-05-11T05:24:39.525Z,28.12
2023-05-11T05:25:39.545Z,28.12
2023-05-11T05:26:39.502Z,28.12
2023-05-11T05:27:39.491Z,28.12
2023-05-11T05:28:39.501Z,28.12
2023-05-11T05:29:39.479Z,28.12
2023-05-11T05:30:39.495Z,28.12
2023-05-11T05:31:39.530Z,28.12
2023-05-11T05:32:39.495Z,28.12
2023-05-11T05:33:39.444Z,28.12
2023-05-11T05:34:39.416Z,28.12
2023-05-11T05:35:39.408Z,28.12
2023-05-11T05:36:40.386Z,22.50
2023-05-11T05:37:39.391Z,22.50
2023-05-11T05:38:39.368Z,22.50
2023-05-11T05:39:39.383Z,22.50
2023-05-11T05:40:39.337Z,22.50
2023-05-11T05:41:39.334Z,22.50
2023-05-11T05:42:39.329Z,22.50
2023-05-11T05:43:39.348Z,28.12
2023-05-11T05:44:39.321Z,33.75
2023-05-11T05:45:39.305Z,33.75
2023-05-11T05:46:39.352Z,33.75
2023-05-11T05:47:39.389Z,33.75
2023-05-11T05:48:39.296Z,33.75
2023-05-11T05:49:39.254Z,39.38
2023-05-11T05:50:39.251Z,39.38
2023-05-11T05:51:39.238Z,50.62
2023-05-11T05:52:39.206Z,73.12
2023-05-11T05:53:39.206Z,67.50
2023-05-11T05:54:39.201Z,61.88
2023-05-11T05:55:39.181Z,56.25
2023-05-11T05:56:39.159Z,67.50
2023-05-11T05:57:39.163Z,67.50
2023-05-11T05:58:39.133Z,56.25
2023-05-11T05:59:39.147Z,67.50
2023-05-11T06:00:39.112Z,67.50
2023-05-11T06:01:39.122Z,56.25
2023-05-11T06:02:39.151Z,56.25
2023-05-11T06:03:39.309Z,50.62
2023-05-11T06:04:39.151Z,45.00
2023-05-11T06:05:39.078Z,39.38
2023-05-11T06:06:39.060Z,45.00
2023-05-11T06:07:39.076Z,39.38
2023-05-11T06:08:39.039Z,39.38
2023-05-11T06:09:39.405Z,45.00
2023-05-11T06:10:39.194Z,50.62
2023-05-11T06:11:39.016Z,45.00
2023-05-11T06:12:38.996Z,50.62
2023-05-11T06:13:38.986Z,50.62
2023-05-11T06:14:38.953Z,56.25
2023-05-11T06:15:41.047Z,45.00
2023-05-11T06:16:39.125Z,45.00
2023-05-11T06:17:38.974Z,50.62
2023-05-11T06:18:38.964Z,50.62
2023-05-11T06:19:38.920Z,56.25
2023-05-11T06:20:38.898Z,56.25
2023-05-11T06:21:38.877Z,67.50
2023-05-11T06:22:38.875Z,67.50
2023-05-11T06:23:38.870Z,73.12
2023-05-11T06:24:38.833Z,90.00
2023-05-11T06:25:38.844Z,95.62
2023-05-11T06:26:38.836Z,106.88
2023-05-11T06:27:38.824Z,90.00
2023-05-11T06:28:38.793Z,95.62
2023-05-11T06:29:38.807Z,95.62
2023-05-11T06:30:38.766Z,106.88
2023-05-11T06:31:38.842Z,90.00
2023-05-11T06:32:38.984Z,90.00
2023-05-11T06:33:38.765Z,90.00
2023-05-11T06:34:38.772Z,95.62
2023-05-11T06:35:38.807Z,95.62
2023-05-11T06:36:38.721Z,101.25
2023-05-11T06:37:38.735Z,118.12
2023-05-11T06:38:38.684Z,123.75
2023-05-11T06:39:38.676Z,118.12
2023-05-11T06:40:38.676Z,123.75
2023-05-11T06:41:38.669Z,118.12
2023-05-11T06:42:38.641Z,101.25
2023-05-11T06:43:38.655Z,112.50
2023-05-11T06:44:38.636Z,106.88
2023-05-11T06:45:38.632Z,106.88
2023-05-11T06:46:38.602Z,106.88
2023-05-11T06:47:38.631Z,101.25
2023-05-11T06:48:38.572Z,101.25
2023-05-11T06:49:38.586Z,95.62
2023-05-11T06:50:38.581Z,95.62
2023-05-11T06:51:38.556Z,95.62
2023-05-11T06:52:38.552Z,95.62
2023-05-11T06:53:38.598Z,90.00
2023-05-11T06:54:38.506Z,95.62
2023-05-11T06:55:38.516Z,90.00
2023-05-11T06:56:38.614Z,90.00
2023-05-11T06:57:38.505Z,95.62
2023-05-11T06:58:38.467Z,95.62
2023-05-11T06:59:38.471Z,95.62
2023-05-11T07:00:38.461Z,101.25
2023-05-11T07:01:38.506Z,101.25
2023-05-11T07:02:38.433Z,101.25
2023-05-11T07:03:38.405Z,106.88
2023-05-11T07:04:38.428Z,106.88
2023-05-11T07:05:38.399Z,101.25
2023-05-11T07:06:38.384Z,106.88
2023-05-11T07:07:38.454Z,95.62
2023-05-11T07:08:38.362Z,95.62
2023-05-11T07:09:39.426Z,101.25
2023-05-11T07:10:38.326Z,101.25
2023-05-11T07:11:38.339Z,106.88
2023-05-11T07:12:38.296Z,90.00
2023-05-11T07:13:38.300Z,112.50
2023-05-11T07:14:38.430Z,106.88
2023-05-11T07:15:38.300Z,106.88
2023-05-11T07:16:38.424Z,106.88
2023-05-11T07:17:38.303Z,95.62
2023-05-11T07:18:38.318Z,106.88
2023-05-11T07:19:38.239Z,106.88
2023-05-11T07:20:38.260Z,101.25
2023-05-11T07:21:38.204Z,101.25
2023-05-11T07:22:38.188Z,101.25
2023-05-11T07:23:38.202Z,101.25
2023-05-11T07:24:38.192Z,106.88
2023-05-11T07:25:38.186Z,106.88
2023-05-11T07:26:38.147Z,106.88
2023-05-11T07:27:38.138Z,106.88
2023-05-11T07:28:38.120Z,95.62
2023-05-11T07:29:38.112Z,101.25
2023-05-11T07:30:38.151Z,101.25
2023-05-11T07:31:38.167Z,101.25
2023-05-11T07:32:38.141Z,101.25
2023-05-11T07:33:38.070Z,95.62
2023-05-11T07:34:38.063Z,101.25
2023-05-11T07:35:38.067Z,101.25
2023-05-11T07:36:38.031Z,101.25
2023-05-11T07:37:38.052Z,106.88
2023-05-11T07:38:38.030Z,106.88
2023-05-11T07:39:38.003Z,106.88
2023-05-11T07:40:38.024Z,101.25
2023-05-11T07:41:37.976Z,106.88
2023-05-11T07:42:37.978Z,106.88
2023-05-11T07:43:37.952Z,106.88
2023-05-11T07:44:37.942Z,112.50
2023-05-11T07:45:37.935Z,112.50
2023-05-11T07:46:38.048Z,106.88
2023-05-11T07:47:37.954Z,106.88
2023-05-11T07:48:37.918Z,112.50
2023-05-11T07:49:43.386Z,90.00
2023-05-11T07:50:38.873Z,106.88
2023-05-11T07:51:37.861Z,106.88
2023-05-11T07:52:37.853Z,101.25
2023-05-11T07:53:37.848Z,101.25
2023-05-11T07:54:37.849Z,101.25
2023-05-11T07:55:37.828Z,101.25
2023-05-11T07:56:37.851Z,101.25
2023-05-11T07:57:37.797Z,90.00
2023-05-11T07:58:37.780Z,95.62
2023-05-11T07:59:37.776Z,101.25
2023-05-11T08:00:37.774Z,101.25
2023-05-11T08:01:37.768Z,101.25
2023-05-11T08:02:37.817Z,101.25
2023-05-11T08:03:37.739Z,101.25
2023-05-11T08:04:37.829Z,101.25
2023-05-11T08:05:37.828Z,101.25
2023-05-11T08:06:37.708Z,101.25
2023-05-11T08:07:40.364Z,101.25
2023-05-11T08:08:37.678Z,95.62
2023-05-11T08:09:37.712Z,95.62
2023-05-11T08:10:37.646Z,101.25
2023-05-11T08:11:37.671Z,90.00
2023-05-11T08:12:37.642Z,90.00
2023-05-11T08:13:37.618Z,95.62
2023-05-11T08:14:37.618Z,95.62
2023-05-11T08:15:37.603Z,101.25
2023-05-11T08:16:37.707Z,101.25
2023-05-11T08:17:37.680Z,101.25
2023-05-11T08:18:37.593Z,95.62
2023-05-11T08:19:37.552Z,95.62
2023-05-11T08:20:37.568Z,95.62
2023-05-11T08:21:37.532Z,90.00
2023-05-11T08:22:37.516Z,95.62
2023-05-11T08:23:37.510Z,95.62
2023-05-11T08:24:37.510Z,95.62
2023-05-11T08:25:37.497Z,95.62
2023-05-11T08:26:37.472Z,95.62
2023-05-11T08:27:37.480Z,95.62
2023-05-11T08:28:37.543Z,101.25
2023-05-11T08:29:37.452Z,101.25
2023-05-11T08:30:37.424Z,95.62
2023-05-11T08:31:37.447Z,101.25
2023-05-11T08:32:46.695Z,101.25
2023-05-11T08:33:39.020Z,106.88
2023-05-11T08:34:37.505Z,112.50
2023-05-11T08:35:37.376Z,112.50
2023-05-11T08:36:37.372Z,112.50
2023-05-11T08:37:37.372Z,106.88
2023-05-11T08:38:37.344Z,106.88
2023-05-11T08:39:46.644Z,106.88
2023-05-11T08:40:38.317Z,106.88
2023-05-11T08:41:37.314Z,106.88
2023-05-11T08:42:37.300Z,106.88
2023-05-11T08:43:37.287Z,101.25
2023-05-11T08:44:37.316Z,106.88
2023-05-11T08:45:38.275Z,101.25
2023-05-11T08:46:37.250Z,101.25
2023-05-11T08:47:37.271Z,101.25
2023-05-11T08:48:37.225Z,101.25
2023-05-11T08:49:37.245Z,101.25
2023-05-11T08:50:37.224Z,106.88
2023-05-11T08:51:37.206Z,106.88
2023-05-11T08:52:37.176Z,106.88
2023-05-11T08:53:37.190Z,101.25
2023-05-11T08:54:37.179Z,106.88
2023-05-11T08:55:37.152Z,106.88
2023-05-11T08:56:37.145Z,106.88
2023-05-11T08:57:37.147Z,106.88
2023-05-11T08:58:37.122Z,106.88
2023-05-11T08:59:37.121Z,106.88
2023-05-11T09:00:37.140Z,106.88
2023-05-11T09:01:37.163Z,78.75
2023-05-11T09:02:37.124Z,78.75
2023-05-11T09:03:37.137Z,84.38
2023-05-11T09:04:37.065Z,106.88
2023-05-11T09:05:37.162Z,106.88
2023-05-11T09:06:37.020Z,90.00
2023-05-11T09:07:37.017Z,106.88
2023-05-11T09:08:37.005Z,106.88
2023-05-11T09:09:37.019Z,112.50
2023-05-11T09:10:36.986Z,106.88
2023-05-11T09:11:36.994Z,106.88
2023-05-11T09:12:36.966Z,112.50
2023-05-11T09:13:36.973Z,112.50
2023-05-11T09:14:36.935Z,118.12
2023-05-11T09:15:38.037Z,118.12
2023-05-11T09:16:37.786Z,106.88
2023-05-11T09:17:36.903Z,101.25
2023-05-11T09:18:36.939Z,106.88
2023-05-11T09:19:36.874Z,101.25
2023-05-11T09:20:36.902Z,106.88
2023-05-11T09:21:36.917Z,106.88
2023-05-11T09:22:36.946Z,106.88
2023-05-11T09:23:36.841Z,106.88
2023-05-11T09:24:36.833Z,106.88
2023-05-11T09:25:36.837Z,106.88
2023-05-11T09:26:36.835Z,106.88
2023-05-11T09:27:36.785Z,106.88
2023-05-11T09:28:36.973Z,106.88
2023-05-11T09:29:36.773Z,106.88
2023-05-11T09:30:36.782Z,106.88
2023-05-11T09:31:36.787Z,78.75
2023-05-11T09:32:36.787Z,106.88
2023-05-11T09:33:36.727Z,101.25
2023-05-11T09:35:37.716Z,112.50
2023-05-11T09:36:36.703Z,112.50
2023-05-11T09:37:36.731Z,106.88
2023-05-11T09:38:36.690Z,106.88
2023-05-11T09:39:42.050Z,112.50
2023-05-11T09:40:37.698Z,112.50
2023-05-11T09:41:36.641Z,112.50
2023-05-11T09:42:36.627Z,95.62
2023-05-11T09:43:36.642Z,106.88
2023-05-11T09:44:36.605Z,78.75
2023-05-11T09:45:36.593Z,95.62
2023-05-11T09:46:36.618Z,95.62
2023-05-11T09:47:36.599Z,78.75
2023-05-11T09:48:36.619Z,90.00
2023-05-11T09:49:36.579Z,90.00
2023-05-11T09:50:36.543Z,84.38
2023-05-11T09:51:36.522Z,78.75
2023-05-11T09:52:36.514Z,106.88
2023-05-11T09:53:36.535Z,112.50
2023-05-11T09:54:36.492Z,101.25
2023-05-11T09:55:36.484Z,78.75
2023-05-11T09:56:36.493Z,112.50
2023-05-11T09:57:36.472Z,84.38
2023-05-11T09:58:36.455Z,106.88
2023-05-11T09:59:36.455Z,101.25
2023-05-11T10:00:36.427Z,101.25
2023-05-11T10:01:36.473Z,112.50
2023-05-11T10:02:36.488Z,112.50
2023-05-11T10:03:36.474Z,112.50
2023-05-11T10:04:36.456Z,78.75
2023-05-11T10:05:36.394Z,78.75
2023-05-11T10:06:36.356Z,90.00
2023-05-11T10:07:36.377Z,90.00
2023-05-11T10:08:36.334Z,106.88
2023-05-11T10:09:36.327Z,78.75
2023-05-11T10:10:36.342Z,78.75
2023-05-11T10:11:36.302Z,78.75
2023-05-11T10:12:36.302Z,118.12
2023-05-11T10:13:36.282Z,84.38
2023-05-11T10:14:36.298Z,84.38
2023-05-11T10:15:36.257Z,84.38
2023-05-11T10:16:36.480Z,95.62
2023-05-11T10:17:36.269Z,118.12
2023-05-11T10:18:36.270Z,118.12
2023-05-11T10:19:36.211Z,95.62
2023-05-11T10:20:36.266Z,123.75
2023-05-11T10:21:36.209Z,118.12
2023-05-11T10:22:36.243Z,112.50
2023-05-11T10:23:36.165Z,78.75
2023-05-11T10:24:36.176Z,78.75
2023-05-11T10:25:36.140Z,78.75
2023-05-11T10:26:36.156Z,78.75
2023-05-11T10:27:36.131Z,78.75
2023-05-11T10:28:36.116Z,84.38
2023-05-11T10:29:36.114Z,84.38
2023-05-11T10:30:36.101Z,95.62
2023-05-11T10:31:36.090Z,90.00
2023-05-11T10:32:36.135Z,95.62
2023-05-11T10:33:36.053Z,129.38
2023-05-11T10:34:36.072Z,101.25
2023-05-11T10:35:36.024Z,90.00
2023-05-11T10:36:36.060Z,118.12
2023-05-11T10:37:36.015Z,95.62
2023-05-11T10:38:36.016Z,123.75
2023-05-11T10:39:36.012Z,90.00
2023-05-11T10:40:35.995Z,129.38
2023-05-11T10:41:35.960Z,129.38
2023-05-11T10:42:35.959Z,135.00
2023-05-11T10:43:35.956Z,129.38
2023-05-11T10:44:35.960Z,106.88
2023-05-11T10:45:35.944Z,118.12
2023-05-11T10:46:35.921Z,90.00
2023-05-11T10:47:35.911Z,90.00
2023-05-11T10:48:35.889Z,101.25
2023-05-11T10:49:35.888Z,106.88
2023-05-11T10:50:35.885Z,95.62
2023-05-11T10:51:35.856Z,106.88
2023-05-11T10:52:35.857Z,106.88
2023-05-11T10:53:35.817Z,112.50
2023-05-11T10:54:35.816Z,112.50
2023-05-11T10:55:35.820Z,118.12
2023-05-11T10:56:35.791Z,123.75
2023-05-11T10:57:35.795Z,123.75
2023-05-11T10:58:35.765Z,123.75
2023-05-11T10:59:35.766Z,123.75
2023-05-11T11:00:35.851Z,84.38
2023-05-11T11:01:35.818Z,123.75
2023-05-11T11:02:35.783Z,84.38
2023-05-11T11:03:35.725Z,129.38
2023-05-11T11:04:35.724Z,106.88
2023-05-11T11:05:35.750Z,95.62
2023-05-11T11:06:35.682Z,129.38
2023-05-11T11:07:35.679Z,84.38
2023-05-11T11:08:36.290Z,123.75
2023-05-11T11:09:35.650Z,90.00
2023-05-11T11:10:35.666Z,84.38
2023-05-11T11:11:35.620Z,78.75
2023-05-11T11:12:35.621Z,123.75
2023-05-11T11:13:35.634Z,112.50
2023-05-11T11:14:35.596Z,129.38
2023-05-11T11:15:35.594Z,129.38
2023-05-11T11:16:35.616Z,129.38
2023-05-11T11:17:35.954Z,135.00
2023-05-11T11:18:35.638Z,90.00
2023-05-11T11:19:35.538Z,90.00
2023-05-11T11:20:35.549Z,129.38
2023-05-11T11:21:35.513Z,135.00
2023-05-11T11:22:35.641Z,129.38
2023-05-11T11:23:35.505Z,135.00
2023-05-11T11:24:35.506Z,129.38
2023-05-11T11:25:35.471Z,123.75
2023-05-11T11:26:35.475Z,118.12
2023-05-11T11:27:35.462Z,118.12
2023-05-11T11:28:35.438Z,112.50
2023-05-11T11:29:35.432Z,112.50
2023-05-11T11:30:35.415Z,112.50
2023-05-11T11:31:35.483Z,118.12
2023-05-11T11:32:35.483Z,123.75
2023-05-11T11:33:35.379Z,123.75
2023-05-11T11:34:35.416Z,123.75
2023-05-11T11:35:35.372Z,129.38
2023-05-11T11:36:35.352Z,129.38
2023-05-11T11:37:35.332Z,135.00
2023-05-11T11:38:35.326Z,146.25
2023-05-11T11:39:35.331Z,146.25
2023-05-11T11:40:46.898Z,146.25
2023-05-11T11:41:36.313Z,140.62
2023-05-11T11:42:35.297Z,151.88
2023-05-11T11:43:37.262Z,101.25
2023-05-11T11:44:35.270Z,95.62
2023-05-11T11:45:35.251Z,95.62
2023-05-11T11:46:35.303Z,95.62
2023-05-11T11:47:35.307Z,95.62
2023-05-11T11:48:35.214Z,90.00
2023-05-11T11:49:35.215Z,90.00
2023-05-11T11:50:35.201Z,90.00
2023-05-11T11:51:35.183Z,90.00
2023-05-11T11:52:35.174Z,90.00
2023-05-11T11:53:35.162Z,90.00
2023-05-11T11:54:35.159Z,90.00
2023-05-11T11:55:35.155Z,90.00
2023-05-11T11:56:35.136Z,90.00
2023-05-11T11:57:35.142Z,90.00
2023-05-11T11:58:35.098Z,90.00
2023-05-11T11:59:35.113Z,90.00
2023-05-11T12:00:35.076Z,84.38
2023-05-11T12:01:35.057Z,84.38
2023-05-11T12:02:35.192Z,84.38
2023-05-11T12:03:35.259Z,84.38
2023-05-11T12:04:35.103Z,78.75
2023-05-11T12:05:35.032Z,78.75
2023-05-11T12:06:35.029Z,73.12
2023-05-11T12:07:34.987Z,73.12
2023-05-11T12:08:34.984Z,73.12
2023-05-11T12:09:34.979Z,73.12
2023-05-11T12:10:34.973Z,73.12
2023-05-11T12:11:34.967Z,67.50
2023-05-11T12:12:34.969Z,61.88
2023-05-11T12:13:34.934Z,61.88
2023-05-11T12:14:34.919Z,56.25
2023-05-11T12:15:34.903Z,56.25
2023-05-11T12:16:34.931Z,50.62
2023-05-11T12:17:34.917Z,50.62
2023-05-11T12:18:34.979Z,50.62
2023-05-11T12:19:34.886Z,50.62
2023-05-11T12:20:34.858Z,50.62
2023-05-11T12:21:34.828Z,50.62
2023-05-11T12:22:34.845Z,50.62
2023-05-11T12:23:34.836Z,50.62
2023-05-11T12:24:34.828Z,50.62
2023-05-11T12:25:34.793Z,50.62
2023-05-11T12:26:34.781Z,50.62
2023-05-11T12:27:34.768Z,56.25
2023-05-11T12:28:34.778Z,50.62
2023-05-11T12:29:34.769Z,50.62
2023-05-11T12:30:34.756Z,50.62
2023-05-11T12:31:34.792Z,50.62
2023-05-11T12:32:34.741Z,50.62
2023-05-11T12:33:34.700Z,56.25
2023-05-11T12:34:34.709Z,56.25
2023-05-11T12:35:34.679Z,56.25
2023-05-11T12:36:34.730Z,56.25
2023-05-11T12:37:34.656Z,56.25
2023-05-11T12:38:34.650Z,56.25
2023-05-11T12:39:34.655Z,56.25
2023-05-11T12:40:34.659Z,56.25
2023-05-11T12:41:34.609Z,61.88
2023-05-11T12:42:35.264Z,61.88
2023-05-11T12:43:34.617Z,61.88
2023-05-11T12:44:34.598Z,61.88
2023-05-11T12:45:34.565Z,61.88
2023-05-11T12:46:34.638Z,67.50
2023-05-11T12:47:34.609Z,67.50
2023-05-11T12:48:34.534Z,67.50
2023-05-11T12:49:34.518Z,73.12
2023-05-11T12:50:34.516Z,73.12
2023-05-11T12:51:34.499Z,73.12
2023-05-11T12:52:34.511Z,84.38
2023-05-11T12:53:34.494Z,84.38
2023-05-11T12:54:34.470Z,106.88